sensor_id;sensor_type;location;lat;lon;timestamp;pressure;altitude;pressure_sealevel;temperature;humidity
71344;BME280;59146;43.850;25.948;2023-03-13T00:01:33;101578.25;;;4.34;66.00
71344;BME280;59146;43.850;25.948;2023-03-13T00:03:58;101529.13;;;3.85;65.48
71344;BME280;59146;43.850;25.948;2023-03-13T00:06:29;101622.41;;;4.25;64.36
71344;BME280;59146;43.850;25.948;2023-03-13T00:08:59;101624.13;;;4.25;65.37
71344;BME280;59146;43.850;25.948;2023-03-13T00:11:25;101624.88;;;4.30;65.92
71344;BME280;59146;43.850;25.948;2023-03-13T00:13:58;101620.69;;;4.24;66.06
71344;BME280;59146;43.850;25.948;2023-03-13T00:16:24;101613.09;;;4.14;65.65
71344;BME280;59146;43.850;25.948;2023-03-13T00:18:52;101538.78;;;3.73;66.06
71344;BME280;59146;43.850;25.948;2023-03-13T00:21:20;101608.84;;;4.10;67.09
71344;BME280;59146;43.850;25.948;2023-03-13T00:23:46;101592.56;;;4.04;67.60
71344;BME280;59146;43.850;25.948;2023-03-13T00:26:14;101537.78;;;3.81;65.75
71344;BME280;59146;43.850;25.948;2023-03-13T00:28:41;101623.38;;;4.18;66.00
71344;BME280;59146;43.850;25.948;2023-03-13T00:33:42;101608.84;;;4.10;65.30
71344;BME280;59146;43.850;25.948;2023-03-13T00:36:12;101598.63;;;4.03;65.65
71344;BME280;59146;43.850;25.948;2023-03-13T00:38:38;101541.53;;;3.65;65.80
71344;BME280;59146;43.850;25.948;2023-03-13T00:41:06;101543.41;;;3.54;66.06
71344;BME280;59146;43.850;25.948;2023-03-13T00:43:33;101557.06;;;3.64;66.43
71344;BME280;59146;43.850;25.948;2023-03-13T00:45:59;101570.72;;;3.70;66.35
71344;BME280;59146;43.850;25.948;2023-03-13T00:48:25;101551.16;;;3.56;67.31
71344;BME280;59146;43.850;25.948;2023-03-13T00:50:51;101603.94;;;3.94;65.96
71344;BME280;59146;43.850;25.948;2023-03-13T00:53:17;101644.25;;;4.04;67.02
71344;BME280;59146;43.850;25.948;2023-03-13T00:55:58;101634.84;;;4.02;66.54
71344;BME280;59146;43.850;25.948;2023-03-13T00:58:26;101512.66;;;3.39;66.30
71344;BME280;59146;43.850;25.948;2023-03-13T01:00:52;101604.81;;;3.93;66.20
71344;BME280;59146;43.850;25.948;2023-03-13T01:03:17;101621.66;;;4.17;65.69
71344;BME280;59146;43.850;25.948;2023-03-13T01:05:43;101561.59;;;3.50;66.47
71344;BME280;59146;43.850;25.948;2023-03-13T01:08:09;101543.53;;;3.47;66.01
71344;BME280;59146;43.850;25.948;2023-03-13T01:10:34;101643.53;;;3.96;65.15
71344;BME280;59146;43.850;25.948;2023-03-13T01:13:00;101566.00;;;3.40;65.65
71344;BME280;59146;43.850;25.948;2023-03-13T01:15:25;101636.84;;;3.83;65.68
71344;BME280;59146;43.850;25.948;2023-03-13T01:17:50;101653.19;;;3.85;66.17
71344;BME280;59146;43.850;25.948;2023-03-13T01:20:16;101566.19;;;3.28;67.01
71344;BME280;59146;43.850;25.948;2023-03-13T01:22:41;101564.44;;;3.30;67.43
71344;BME280;59146;43.850;25.948;2023-03-13T01:25:07;101634.41;;;3.74;68.09
71344;BME280;59146;43.850;25.948;2023-03-13T01:27:33;101642.81;;;3.88;67.19
71344;BME280;59146;43.850;25.948;2023-03-13T01:29:58;101649.75;;;3.83;66.17
71344;BME280;59146;43.850;25.948;2023-03-13T01:32:24;101570.31;;;3.40;66.53
71344;BME280;59146;43.850;25.948;2023-03-13T01:34:49;101643.91;;;3.72;66.74
71344;BME280;59146;43.850;25.948;2023-03-13T01:37:15;101585.72;;;3.47;66.64
71344;BME280;59146;43.850;25.948;2023-03-13T01:39:40;101645.66;;;3.69;67.36
71344;BME280;59146;43.850;25.948;2023-03-13T01:42:06;101668.78;;;3.79;66.73
71344;BME280;59146;43.850;25.948;2023-03-13T01:44:52;101681.84;;;3.70;67.08
71344;BME280;59146;43.850;25.948;2023-03-13T01:47:18;101674.88;;;3.77;66.84
71344;BME280;59146;43.850;25.948;2023-03-13T01:49:44;101666.97;;;3.87;66.33
71344;BME280;59146;43.850;25.948;2023-03-13T01:52:21;101627.00;;;3.52;66.51
71344;BME280;59146;43.850;25.948;2023-03-13T01:54:52;101655.56;;;3.40;67.17
71344;BME280;59146;43.850;25.948;2023-03-13T01:57:31;101609.34;;;3.20;67.53
71344;BME280;59146;43.850;25.948;2023-03-13T02:00:10;101674.22;;;3.61;67.16
71344;BME280;59146;43.850;25.948;2023-03-13T02:02:40;101676.06;;;3.50;66.86
71344;BME280;59146;43.850;25.948;2023-03-13T02:05:07;101685.59;;;3.50;67.12
71344;BME280;59146;43.850;25.948;2023-03-13T02:07:41;101617.22;;;3.08;68.46
71344;BME280;59146;43.850;25.948;2023-03-13T02:10:12;101657.16;;;3.48;67.45
71344;BME280;59146;43.850;25.948;2023-03-13T02:12:39;101686.00;;;3.80;65.99
71344;BME280;59146;43.850;25.948;2023-03-13T02:15:11;101672.63;;;3.51;66.26
71344;BME280;59146;43.850;25.948;2023-03-13T02:17:38;101628.34;;;3.13;67.94
71344;BME280;59146;43.850;25.948;2023-03-13T02:20:04;101609.59;;;2.99;67.32
71344;BME280;59146;43.850;25.948;2023-03-13T02:30:18;101643.09;;;3.05;68.06
71344;BME280;59146;43.850;25.948;2023-03-13T02:32:45;101700.56;;;3.22;67.70
71344;BME280;59146;43.850;25.948;2023-03-13T02:35:13;101607.31;;;2.76;67.48
71344;BME280;59146;43.850;25.948;2023-03-13T02:37:47;101659.63;;;2.87;68.08
71344;BME280;59146;43.850;25.948;2023-03-13T02:40:17;101702.81;;;2.72;68.36
71344;BME280;59146;43.850;25.948;2023-03-13T02:42:45;101735.31;;;2.91;69.23
71344;BME280;59146;43.850;25.948;2023-03-13T02:45:15;101665.91;;;2.64;69.09
71344;BME280;59146;43.850;25.948;2023-03-13T02:47:41;101724.94;;;2.94;68.57
71344;BME280;59146;43.850;25.948;2023-03-13T02:50:07;101684.91;;;2.54;70.05
71344;BME280;59146;43.850;25.948;2023-03-13T02:52:48;101705.53;;;2.54;70.37
71344;BME280;59146;43.850;25.948;2023-03-13T02:55:22;101728.78;;;2.48;71.33
71344;BME280;59146;43.850;25.948;2023-03-13T02:57:49;101662.09;;;2.07;70.63
71344;BME280;59146;43.850;25.948;2023-03-13T03:00:16;101733.13;;;2.44;70.97
71344;BME280;59146;43.850;25.948;2023-03-13T03:02:42;101591.28;;;1.44;71.14
71344;BME280;59146;43.850;25.948;2023-03-13T03:05:10;101669.91;;;1.98;71.86
71344;BME280;59146;43.850;25.948;2023-03-13T03:07:36;101687.88;;;2.08;72.09
71344;BME280;59146;43.850;25.948;2023-03-13T03:10:02;101689.63;;;2.02;71.91
71344;BME280;59146;43.850;25.948;2023-03-13T03:12:28;101729.09;;;2.08;72.65
71344;BME280;59146;43.850;25.948;2023-03-13T03:14:53;101747.06;;;2.16;72.71
71344;BME280;59146;43.850;25.948;2023-03-13T03:17:19;101744.50;;;2.22;72.53
71344;BME280;59146;43.850;25.948;2023-03-13T03:19:44;101771.75;;;2.52;71.68
71344;BME280;59146;43.850;25.948;2023-03-13T03:22:10;101693.97;;;1.97;72.02
71344;BME280;59146;43.850;25.948;2023-03-13T03:24:35;101763.31;;;2.28;72.11
71344;BME280;59146;43.850;25.948;2023-03-13T03:27:01;101699.28;;;1.71;71.77
71344;BME280;59146;43.850;25.948;2023-03-13T03:29:26;101704.53;;;1.45;72.12
71344;BME280;59146;43.850;25.948;2023-03-13T03:31:52;101751.59;;;1.82;73.12
71344;BME280;59146;43.850;25.948;2023-03-13T03:34:19;101764.47;;;1.82;72.69
71344;BME280;59146;43.850;25.948;2023-03-13T03:36:44;101785.97;;;1.72;72.15
71344;BME280;59146;43.850;25.948;2023-03-13T03:39:10;101734.66;;;1.18;71.66
71344;BME280;59146;43.850;25.948;2023-03-13T03:41:35;101621.66;;;0.51;72.57
71344;BME280;59146;43.850;25.948;2023-03-13T03:44:02;101641.31;;;0.76;72.14
71344;BME280;59146;43.850;25.948;2023-03-13T03:46:27;101822.06;;;1.69;72.58
71344;BME280;59146;43.850;25.948;2023-03-13T03:48:53;101697.03;;;0.90;72.76
71344;BME280;59146;43.850;25.948;2023-03-13T03:51:19;101719.25;;;1.15;72.19
71344;BME280;59146;43.850;25.948;2023-03-13T03:53:44;101809.22;;;1.58;72.83
71344;BME280;59146;43.850;25.948;2023-03-13T03:56:10;101774.88;;;1.61;71.51
71344;BME280;59146;43.850;25.948;2023-03-13T03:58:35;101805.81;;;1.55;71.40
71344;BME280;59146;43.850;25.948;2023-03-13T04:01:00;101751.81;;;1.34;72.11
71344;BME280;59146;43.850;25.948;2023-03-13T04:03:26;101835.75;;;1.80;72.07
71344;BME280;59146;43.850;25.948;2023-03-13T04:05:51;101852.03;;;1.90;71.10
71344;BME280;59146;43.850;25.948;2023-03-13T04:08:17;101762.97;;;1.27;71.91
71344;BME280;59146;43.850;25.948;2023-03-13T04:10:43;101845.16;;;1.87;71.05
71344;BME280;59146;43.850;25.948;2023-03-13T04:13:08;101847.81;;;1.75;72.03
71344;BME280;59146;43.850;25.948;2023-03-13T04:15:33;101860.50;;;2.14;71.50
71344;BME280;59146;43.850;25.948;2023-03-13T04:17:59;101803.19;;;1.64;70.70
71344;BME280;59146;43.850;25.948;2023-03-13T04:20:24;101855.47;;;1.90;71.13
71344;BME280;59146;43.850;25.948;2023-03-13T04:22:50;101741.56;;;1.10;71.46
71344;BME280;59146;43.850;25.948;2023-03-13T04:25:15;101708.13;;;1.04;70.93
71344;BME280;59146;43.850;25.948;2023-03-13T04:27:41;101884.66;;;1.97;70.84
71344;BME280;59146;43.850;25.948;2023-03-13T04:30:07;101817.78;;;1.65;71.20
71344;BME280;59146;43.850;25.948;2023-03-13T04:32:32;101854.56;;;2.00;70.06
71344;BME280;59146;43.850;25.948;2023-03-13T04:34:58;101878.56;;;2.17;69.59
71344;BME280;59146;43.850;25.948;2023-03-13T04:37:23;101700.41;;;1.07;68.93
71344;BME280;59146;43.850;25.948;2023-03-13T04:39:49;101876.91;;;1.98;69.54
71344;BME280;59146;43.850;25.948;2023-03-13T04:42:14;101906.03;;;2.21;69.31
71344;BME280;59146;43.850;25.948;2023-03-13T04:44:39;101882.03;;;2.04;68.66
71344;BME280;59146;43.850;25.948;2023-03-13T04:47:05;101852.94;;;1.72;68.51
71344;BME280;59146;43.850;25.948;2023-03-13T04:49:30;101866.59;;;1.95;68.45
71344;BME280;59146;43.850;25.948;2023-03-13T04:51:56;101847.81;;;1.69;68.59
71344;BME280;59146;43.850;25.948;2023-03-13T04:54:21;101888.06;;;2.05;67.91
71344;BME280;59146;43.850;25.948;2023-03-13T04:56:47;101839.28;;;1.55;69.03
71344;BME280;59146;43.850;25.948;2023-03-13T04:59:14;101898.41;;;1.90;70.23
71344;BME280;59146;43.850;25.948;2023-03-13T05:01:41;101891.50;;;1.99;69.40
71344;BME280;59146;43.850;25.948;2023-03-13T05:04:07;101903.47;;;2.21;69.05
71344;BME280;59146;43.850;25.948;2023-03-13T05:06:33;101842.53;;;1.99;68.16
71344;BME280;59146;43.850;25.948;2023-03-13T05:08:59;101919.66;;;2.51;67.33
71344;BME280;59146;43.850;25.948;2023-03-13T05:11:25;101910.16;;;3.65;64.07
71344;BME280;59146;43.850;25.948;2023-03-13T05:13:50;101874.34;;;4.70;60.60
71344;BME280;59146;43.850;25.948;2023-03-13T05:16:15;101905.00;;;6.77;54.04
71344;BME280;59146;43.850;25.948;2023-03-13T05:18:41;101849.56;;;8.09;50.24
71344;BME280;59146;43.850;25.948;2023-03-13T05:21:07;101900.38;;;9.34;47.19
71344;BME280;59146;43.850;25.948;2023-03-13T05:23:32;101839.84;;;8.72;45.79
71344;BME280;59146;43.850;25.948;2023-03-13T05:25:58;101859.75;;;7.87;49.22
71344;BME280;59146;43.850;25.948;2023-03-13T05:28:24;101899.53;;;6.89;50.93
71344;BME280;59146;43.850;25.948;2023-03-13T05:30:50;101811.16;;;6.57;51.41
71344;BME280;59146;43.850;25.948;2023-03-13T05:33:15;101914.09;;;6.96;51.29
71344;BME280;59146;43.850;25.948;2023-03-13T05:35:41;101911.69;;;6.51;52.38
71344;BME280;59146;43.850;25.948;2023-03-13T05:38:07;101899.09;;;5.42;56.41
71344;BME280;59146;43.850;25.948;2023-03-13T05:40:32;101877.19;;;4.53;57.83
71344;BME280;59146;43.850;25.948;2023-03-13T05:42:58;101933.41;;;4.41;60.40
71344;BME280;59146;43.850;25.948;2023-03-13T05:45:23;101876.59;;;3.60;60.71
71344;BME280;59146;43.850;25.948;2023-03-13T05:47:50;101918.56;;;3.86;62.08
71344;BME280;59146;43.850;25.948;2023-03-13T05:50:15;101870.72;;;3.49;62.05
71344;BME280;59146;43.850;25.948;2023-03-13T05:52:41;101778.50;;;2.66;61.86
71344;BME280;59146;43.850;25.948;2023-03-13T05:55:06;101933.38;;;3.68;63.00
71344;BME280;59146;43.850;25.948;2023-03-13T05:57:32;101938.69;;;3.56;62.38
71344;BME280;59146;43.850;25.948;2023-03-13T05:59:57;101962.75;;;3.62;63.85
71344;BME280;59146;43.850;25.948;2023-03-13T06:02:24;101922.50;;;3.34;64.21
71344;BME280;59146;43.850;25.948;2023-03-13T06:04:49;101940.28;;;3.67;63.24
71344;BME280;59146;43.850;25.948;2023-03-13T06:07:15;101865.69;;;3.34;62.85
71344;BME280;59146;43.850;25.948;2023-03-13T06:09:40;101887.94;;;3.47;64.02
71344;BME280;59146;43.850;25.948;2023-03-13T06:12:07;101892.44;;;3.26;64.08
71344;BME280;59146;43.850;25.948;2023-03-13T06:14:33;101952.13;;;3.91;63.51
71344;BME280;59146;43.850;25.948;2023-03-13T06:16:58;101982.06;;;4.80;61.53
71344;BME280;59146;43.850;25.948;2023-03-13T06:19:23;101969.56;;;5.62;60.85
71344;BME280;59146;43.850;25.948;2023-03-13T06:21:50;101833.94;;;5.13;58.41
71344;BME280;59146;43.850;25.948;2023-03-13T06:24:16;101962.81;;;6.47;56.19
71344;BME280;59146;43.850;25.948;2023-03-13T06:26:42;101932.81;;;6.74;54.98
71344;BME280;59146;43.850;25.948;2023-03-13T06:29:08;101925.94;;;7.43;53.19
71344;BME280;59146;43.850;25.948;2023-03-13T06:31:34;101941.94;;;8.25;51.15
71344;BME280;59146;43.850;25.948;2023-03-13T06:33:59;101941.25;;;8.78;49.60
71344;BME280;59146;43.850;25.948;2023-03-13T06:36:25;101915.50;;;8.69;49.64
71344;BME280;59146;43.850;25.948;2023-03-13T06:38:50;101878.50;;;8.86;48.15
71344;BME280;59146;43.850;25.948;2023-03-13T06:41:16;101899.56;;;9.06;48.01
71344;BME280;59146;43.850;25.948;2023-03-13T06:43:41;101849.59;;;8.65;47.64
71344;BME280;59146;43.850;25.948;2023-03-13T06:46:14;101905.13;;;8.38;46.86
71344;BME280;59146;43.850;25.948;2023-03-13T06:48:40;101850.13;;;7.58;48.11
71344;BME280;59146;43.850;25.948;2023-03-13T06:51:10;101886.66;;;7.86;47.56
71344;BME280;59146;43.850;25.948;2023-03-13T06:53:36;101912.19;;;8.35;47.50
71344;BME280;59146;43.850;25.948;2023-03-13T06:56:01;101851.34;;;7.77;47.94
71344;BME280;59146;43.850;25.948;2023-03-13T06:58:27;101947.94;;;8.28;48.44
71344;BME280;59146;43.850;25.948;2023-03-13T07:00:52;101854.19;;;7.36;49.34
71344;BME280;59146;43.850;25.948;2023-03-13T07:03:17;101847.00;;;7.13;49.53
71344;BME280;59146;43.850;25.948;2023-03-13T07:05:43;101946.66;;;8.12;49.10
71344;BME280;59146;43.850;25.948;2023-03-13T07:08:08;101940.06;;;7.99;49.72
71344;BME280;59146;43.850;25.948;2023-03-13T07:10:34;101875.63;;;8.07;48.31
71344;BME280;59146;43.850;25.948;2023-03-13T07:12:59;101936.88;;;7.88;49.89
71344;BME280;59146;43.850;25.948;2023-03-13T07:15:25;101939.47;;;8.51;51.02
71344;BME280;59146;43.850;25.948;2023-03-13T07:17:50;101873.94;;;8.37;48.14
71344;BME280;59146;43.850;25.948;2023-03-13T07:20:16;101930.94;;;8.15;49.19
71344;BME280;59146;43.850;25.948;2023-03-13T07:22:41;101859.13;;;7.79;49.17
71344;BME280;59146;43.850;25.948;2023-03-13T07:25:07;101925.13;;;8.38;48.56
71344;BME280;59146;43.850;25.948;2023-03-13T07:27:33;101873.97;;;8.04;48.35
71344;BME280;59146;43.850;25.948;2023-03-13T07:29:59;101936.06;;;8.18;50.61
71344;BME280;59146;43.850;25.948;2023-03-13T07:32:24;101945.91;;;8.39;51.29
71344;BME280;59146;43.850;25.948;2023-03-13T07:34:50;101930.09;;;8.45;52.41
71344;BME280;59146;43.850;25.948;2023-03-13T07:37:16;101832.66;;;8.52;53.48
71344;BME280;59146;43.850;25.948;2023-03-13T07:39:42;101848.19;;;8.55;49.16
71344;BME280;59146;43.850;25.948;2023-03-13T07:42:11;101906.81;;;8.68;51.16
71344;BME280;59146;43.850;25.948;2023-03-13T07:44:37;101908.59;;;8.08;50.81
71344;BME280;59146;43.850;25.948;2023-03-13T07:47:02;101862.25;;;8.50;48.51
71344;BME280;59146;43.850;25.948;2023-03-13T07:49:28;101934.75;;;9.19;50.11
71344;BME280;59146;43.850;25.948;2023-03-13T07:51:53;101916.06;;;8.78;50.80
71344;BME280;59146;43.850;25.948;2023-03-13T07:54:19;101867.13;;;8.02;50.03
71344;BME280;59146;43.850;25.948;2023-03-13T07:56:44;101943.19;;;8.99;49.55
71344;BME280;59146;43.850;25.948;2023-03-13T07:59:10;101950.53;;;9.14;53.35
71344;BME280;59146;43.850;25.948;2023-03-13T08:01:35;101845.03;;;8.46;51.10
71344;BME280;59146;43.850;25.948;2023-03-13T08:04:01;101846.56;;;8.51;49.40
71344;BME280;59146;43.850;25.948;2023-03-13T08:06:29;101931.06;;;8.70;51.69
71344;BME280;59146;43.850;25.948;2023-03-13T08:08:56;101954.75;;;8.91;51.64
71344;BME280;59146;43.850;25.948;2023-03-13T08:11:23;101947.59;;;8.69;52.07
71344;BME280;59146;43.850;25.948;2023-03-13T08:13:50;101832.56;;;7.97;53.33
71344;BME280;59146;43.850;25.948;2023-03-13T08:16:17;101945.09;;;8.37;51.52
71344;BME280;59146;43.850;25.948;2023-03-13T08:18:47;101926.56;;;8.48;52.99
71344;BME280;59146;43.850;25.948;2023-03-13T08:21:16;101939.97;;;8.63;52.69
71344;BME280;59146;43.850;25.948;2023-03-13T08:23:41;101938.63;;;8.50;52.36
71344;BME280;59146;43.850;25.948;2023-03-13T08:28:33;101919.25;;;8.31;51.64
71344;BME280;59146;43.850;25.948;2023-03-13T08:31:08;101930.59;;;8.29;51.40
71344;BME280;59146;43.850;25.948;2023-03-13T08:33:34;101923.84;;;8.51;50.55
71344;BME280;59146;43.850;25.948;2023-03-13T08:36:09;101923.00;;;8.50;51.54
71344;BME280;59146;43.850;25.948;2023-03-13T08:38:34;101861.81;;;8.05;50.83
71344;BME280;59146;43.850;25.948;2023-03-13T08:41:00;101939.88;;;8.66;51.21
71344;BME280;59146;43.850;25.948;2023-03-13T08:43:25;101879.34;;;8.58;52.34
71344;BME280;59146;43.850;25.948;2023-03-13T08:45:56;101901.41;;;9.02;50.45
71344;BME280;59146;43.850;25.948;2023-03-13T08:48:22;101924.94;;;8.99;50.41
71344;BME280;59146;43.850;25.948;2023-03-13T08:51:01;101925.75;;;9.01;51.00
71344;BME280;59146;43.850;25.948;2023-03-13T08:53:27;101909.84;;;9.10;50.68
71344;BME280;59146;43.850;25.948;2023-03-13T08:55:53;101910.31;;;9.47;49.75
71344;BME280;59146;43.850;25.948;2023-03-13T08:58:20;101903.47;;;9.70;48.29
71344;BME280;59146;43.850;25.948;2023-03-13T09:00:45;101882.41;;;9.25;48.78
71344;BME280;59146;43.850;25.948;2023-03-13T09:03:11;101911.38;;;9.42;48.76
71344;BME280;59146;43.850;25.948;2023-03-13T09:05:37;101740.69;;;8.76;48.96
71344;BME280;59146;43.850;25.948;2023-03-13T09:08:05;101767.06;;;8.94;47.49
71344;BME280;59146;43.850;25.948;2023-03-13T09:10:34;101871.03;;;9.52;48.99
71344;BME280;59146;43.850;25.948;2023-03-13T09:13:00;101912.41;;;9.87;49.25
71344;BME280;59146;43.850;25.948;2023-03-13T09:15:26;101881.31;;;9.81;48.45
71344;BME280;59146;43.850;25.948;2023-03-13T09:17:52;101919.28;;;10.14;46.99
71344;BME280;59146;43.850;25.948;2023-03-13T09:20:18;101844.31;;;9.70;47.13
71344;BME280;59146;43.850;25.948;2023-03-13T09:22:44;101910.22;;;10.00;47.54
71344;BME280;59146;43.850;25.948;2023-03-13T09:25:10;101857.28;;;9.96;46.96
71344;BME280;59146;43.850;25.948;2023-03-13T09:27:36;101828.97;;;9.86;46.52
71344;BME280;59146;43.850;25.948;2023-03-13T09:30:01;101839.41;;;10.32;46.03
71344;BME280;59146;43.850;25.948;2023-03-13T09:32:27;101878.13;;;10.21;45.52
71344;BME280;59146;43.850;25.948;2023-03-13T09:34:52;101868.56;;;10.43;45.22
71344;BME280;59146;43.850;25.948;2023-03-13T09:37:18;101836.28;;;10.22;45.69
71344;BME280;59146;43.850;25.948;2023-03-13T09:39:43;101841.50;;;10.22;45.08
71344;BME280;59146;43.850;25.948;2023-03-13T09:42:18;101834.13;;;10.33;45.74
71344;BME280;59146;43.850;25.948;2023-03-13T09:45:14;101907.06;;;10.61;45.06
71344;BME280;59146;43.850;25.948;2023-03-13T09:47:44;101846.00;;;10.64;44.80
71344;BME280;59146;43.850;25.948;2023-03-13T09:50:15;101875.03;;;10.99;45.67
71344;BME280;59146;43.850;25.948;2023-03-13T09:52:42;101888.59;;;11.29;44.46
71344;BME280;59146;43.850;25.948;2023-03-13T09:55:29;101808.06;;;10.75;43.73
71344;BME280;59146;43.850;25.948;2023-03-13T10:00:39;101833.56;;;11.12;44.47
71344;BME280;59146;43.850;25.948;2023-03-13T10:05:48;101813.56;;;10.89;44.05
71344;BME280;59146;43.850;25.948;2023-03-13T10:08:22;101850.03;;;11.34;42.67
71344;BME280;59146;43.850;25.948;2023-03-13T10:11:27;101870.31;;;11.89;42.42
71344;BME280;59146;43.850;25.948;2023-03-13T10:14:22;101866.38;;;12.18;41.50
71344;BME280;59146;43.850;25.948;2023-03-13T10:17:08;101870.47;;;12.05;41.63
71344;BME280;59146;43.850;25.948;2023-03-13T10:19:40;101823.13;;;11.91;42.32
71344;BME280;59146;43.850;25.948;2023-03-13T10:22:27;101812.00;;;12.05;40.83
71344;BME280;59146;43.850;25.948;2023-03-13T10:24:57;101863.19;;;12.30;40.51
71344;BME280;59146;43.850;25.948;2023-03-13T10:27:25;101850.38;;;12.24;40.80
71344;BME280;59146;43.850;25.948;2023-03-13T10:29:50;101794.91;;;11.98;39.81
71344;BME280;59146;43.850;25.948;2023-03-13T10:32:16;101685.94;;;11.76;38.86
71344;BME280;59146;43.850;25.948;2023-03-13T10:34:59;101801.72;;;12.56;39.31
71344;BME280;59146;43.850;25.948;2023-03-13T10:39:53;101843.16;;;12.48;38.44
71344;BME280;59146;43.850;25.948;2023-03-13T10:42:31;101803.88;;;12.29;40.05
71344;BME280;59146;43.850;25.948;2023-03-13T10:45:02;101776.28;;;12.58;37.56
71344;BME280;59146;43.850;25.948;2023-03-13T10:47:32;101710.75;;;12.75;37.67
71344;BME280;59146;43.850;25.948;2023-03-13T10:49:58;101810.63;;;13.39;37.48
71344;BME280;59146;43.850;25.948;2023-03-13T10:52:42;101739.50;;;12.59;38.20
71344;BME280;59146;43.850;25.948;2023-03-13T10:55:16;101808.09;;;13.54;37.43
71344;BME280;59146;43.850;25.948;2023-03-13T10:57:55;101777.06;;;13.45;36.79
71344;BME280;59146;43.850;25.948;2023-03-13T11:02:53;101721.88;;;12.63;36.54
71344;BME280;59146;43.850;25.948;2023-03-13T11:07:53;101715.75;;;12.97;36.04
71344;BME280;59146;43.850;25.948;2023-03-13T11:10:28;101751.47;;;13.33;36.10
71344;BME280;59146;43.850;25.948;2023-03-13T11:12:55;101766.59;;;13.28;36.39
71344;BME280;59146;43.850;25.948;2023-03-13T11:15:28;101785.03;;;13.27;36.41
71344;BME280;59146;43.850;25.948;2023-03-13T11:18:02;101776.50;;;13.06;35.64
71344;BME280;59146;43.850;25.948;2023-03-13T11:20:34;101757.81;;;13.12;35.22
71344;BME280;59146;43.850;25.948;2023-03-13T11:23:19;101782.50;;;13.08;37.07
71344;BME280;59146;43.850;25.948;2023-03-13T11:26:19;101753.25;;;12.82;36.84
71344;BME280;59146;43.850;25.948;2023-03-13T11:31:37;101717.69;;;13.10;36.77
71344;BME280;59146;43.850;25.948;2023-03-13T11:34:21;101706.75;;;12.85;35.77
71344;BME280;59146;43.850;25.948;2023-03-13T11:37:13;101778.03;;;13.27;35.77
71344;BME280;59146;43.850;25.948;2023-03-13T11:45:24;101757.91;;;14.23;34.72
71344;BME280;59146;43.850;25.948;2023-03-13T11:48:03;101759.50;;;13.79;34.29
71344;BME280;59146;43.850;25.948;2023-03-13T11:50:47;101688.53;;;13.65;34.14
71344;BME280;59146;43.850;25.948;2023-03-13T11:56:14;101747.50;;;14.21;34.18
71344;BME280;59146;43.850;25.948;2023-03-13T12:01:39;101721.22;;;13.75;33.14
71344;BME280;59146;43.850;25.948;2023-03-13T12:04:19;101707.25;;;14.05;31.12
71344;BME280;59146;43.850;25.948;2023-03-13T12:06:54;101677.06;;;13.50;32.48
71344;BME280;59146;43.850;25.948;2023-03-13T12:12:04;101733.78;;;14.01;32.28
71344;BME280;59146;43.850;25.948;2023-03-13T12:14:40;101728.34;;;14.19;32.24
71344;BME280;59146;43.850;25.948;2023-03-13T12:17:12;101721.22;;;14.37;31.43
71344;BME280;59146;43.850;25.948;2023-03-13T12:22:18;101717.09;;;13.86;31.61
71344;BME280;59146;43.850;25.948;2023-03-13T12:24:50;101670.81;;;13.84;30.75
71344;BME280;59146;43.850;25.948;2023-03-13T12:27:25;101678.72;;;13.84;31.61
71344;BME280;59146;43.850;25.948;2023-03-13T12:30:23;101721.41;;;13.87;31.88
71344;BME280;59146;43.850;25.948;2023-03-13T12:33:09;101715.13;;;13.90;31.92
71344;BME280;59146;43.850;25.948;2023-03-13T12:35:41;101693.53;;;13.85;31.08
71344;BME280;59146;43.850;25.948;2023-03-13T12:43:30;101696.16;;;13.69;31.77
71344;BME280;59146;43.850;25.948;2023-03-13T12:48:36;101644.81;;;13.79;30.92
71344;BME280;59146;43.850;25.948;2023-03-13T12:59:37;101720.41;;;14.37;30.05
71344;BME280;59146;43.850;25.948;2023-03-13T13:02:34;101683.47;;;13.93;31.96
71344;BME280;59146;43.850;25.948;2023-03-13T13:05:00;101695.38;;;13.83;31.94
71344;BME280;59146;43.850;25.948;2023-03-13T13:07:34;101701.91;;;14.07;31.58
71344;BME280;59146;43.850;25.948;2023-03-13T13:12:36;101695.03;;;14.65;30.33
71344;BME280;59146;43.850;25.948;2023-03-13T13:15:22;101691.00;;;14.30;30.23
71344;BME280;59146;43.850;25.948;2023-03-13T13:20:46;101686.50;;;14.01;31.53
71344;BME280;59146;43.850;25.948;2023-03-13T13:25:45;101670.75;;;14.01;30.25
71344;BME280;59146;43.850;25.948;2023-03-13T13:28:32;101668.09;;;13.85;30.63
71344;BME280;59146;43.850;25.948;2023-03-13T13:30:58;101611.88;;;13.58;30.53
71344;BME280;59146;43.850;25.948;2023-03-13T13:33:35;101644.63;;;13.98;30.01
71344;BME280;59146;43.850;25.948;2023-03-13T13:38:42;101626.19;;;13.84;31.66
71344;BME280;59146;43.850;25.948;2023-03-13T13:46:43;101603.88;;;13.91;29.52
71344;BME280;59146;43.850;25.948;2023-03-13T13:49:20;101591.38;;;13.65;30.33
71344;BME280;59146;43.850;25.948;2023-03-13T13:57:06;101640.91;;;14.02;30.41
71344;BME280;59146;43.850;25.948;2023-03-13T13:59:38;101573.69;;;13.52;30.42
71344;BME280;59146;43.850;25.948;2023-03-13T14:04:47;101590.97;;;14.02;30.04
71344;BME280;59146;43.850;25.948;2023-03-13T14:07:27;101637.34;;;14.48;30.17
71344;BME280;59146;43.850;25.948;2023-03-13T14:10:05;101594.16;;;13.93;29.52
71344;BME280;59146;43.850;25.948;2023-03-13T14:12:34;101584.47;;;13.93;30.30
71344;BME280;59146;43.850;25.948;2023-03-13T14:17:45;101635.59;;;14.33;29.62
71344;BME280;59146;43.850;25.948;2023-03-13T14:20:30;101639.69;;;14.39;30.46
71344;BME280;59146;43.850;25.948;2023-03-13T14:23:02;101605.63;;;14.06;31.00
71344;BME280;59146;43.850;25.948;2023-03-13T14:25:40;101620.78;;;14.16;30.19